Time;durP1;ratioP1;P1;durP2;ratioP2;P2;SDS_P1;SDS_P2;PMS_P1;PMS_P2;Temp;Humidity;BMP_temperature;BMP_pressure;BME280_temperature;BME280_humidity;BME280_pressure;Samples;Min_cycle;Max_cycle;Signal;HPM_P1;HPM_P2
2023/06/09 00:02:03;;;;;;;;;;;;;;;18.12;35.86;100517.13;4961811;28;98477;-68
2023/06/09 00:04:32;;;;;;;;;;;;;;;18.08;35.88;100518.09;4946794;28;98186;-70
2023/06/09 00:07:00;;;;;;;;;;;;;;;18.04;35.89;100523.34;4944718;28;98013;-70
2023/06/09 00:09:26;;;;;;;;;;;;;;;18.03;35.69;100524.47;4948214;27;99397;-68
2023/06/09 00:11:53;;;;;;;;;;;;;;;17.98;35.78;100521.88;4956029;27;98276;-70
2023/06/09 00:14:19;;;;;;;;;;;;;;;17.94;35.94;100517.38;4948269;27;98313;-67
2023/06/09 00:16:46;;;;;;;;;;;;;;;17.93;35.70;100522.03;4961075;27;99086;-67
2023/06/09 00:19:14;;;;;;;;;;;;;;;17.89;35.75;100513.69;4941814;27;98442;-67
2023/06/09 00:21:40;;;;;;;;;;;;;;;17.84;35.73;100516.56;4946716;27;98250;-71
2023/06/09 00:24:07;;;;;;;;;;;;;;;17.80;35.97;100512.00;4949514;27;99371;-70
2023/06/09 00:26:33;;;;;;;;;;;;;;;17.77;35.76;100513.47;4974127;27;100467;-70
2023/06/09 00:29:00;;;;;;;;;;;;;;;17.73;35.88;100517.91;4963313;27;98107;-67
2023/06/09 00:31:26;;;;;;;;;;;;;;;17.73;35.77;100506.22;4956254;27;99574;-70
2023/06/09 00:33:52;;;;;;;;;;;;;;;17.72;35.74;100504.56;4943314;27;98290;-70
2023/06/09 00:36:19;;;;;;;;;;;;;;;17.70;35.92;100502.19;4958323;27;98138;-67
2023/06/09 00:38:46;;;;;;;;;;;;;;;17.67;35.79;100502.78;4958340;27;98241;-71
2023/06/09 00:41:12;;;;;;;;;;;;;;;17.63;35.96;100496.38;4948945;27;98339;-67
2023/06/09 00:43:40;;;;;;;;;;;;;;;17.58;35.93;100501.97;4958118;27;97866;-71
2023/06/09 00:46:07;;;;;;;;;;;;;;;17.54;35.89;100496.34;4977696;27;97860;-67
2023/06/09 00:48:34;;;;;;;;;;;;;;;17.53;35.87;100504.81;4947032;27;98194;-70
2023/06/09 00:51:01;;;;;;;;;;;;;;;17.49;36.09;100506.53;4979717;27;98426;-70
2023/06/09 00:53:27;;;;;;;;;;;;;;;17.43;35.95;100498.50;4951044;27;99879;-67
2023/06/09 00:55:53;;;;;;;;;;;;;;;17.41;36.05;100508.13;4950098;27;98105;-67
2023/06/09 00:58:20;;;;;;;;;;;;;;;17.39;36.04;100508.44;4979240;27;98089;-70
2023/06/09 01:00:47;;;;;;;;;;;;;;;17.35;36.08;100504.72;4948730;27;99195;-71
2023/06/09 01:03:14;;;;;;;;;;;;;;;17.31;36.03;100508.38;4960699;27;98275;-71
2023/06/09 01:05:44;;;;;;;;;;;;;;;17.27;35.94;100508.19;4954434;27;97781;-67
2023/06/09 01:08:33;;;;;;;;;;;;;;;17.25;36.09;100506.88;4961820;27;98635;-67
2023/06/09 01:11:21;;;;;;;;;;;;;;;17.21;36.10;100503.19;4969897;27;98121;-68
2023/06/09 01:14:08;;;;;;;;;;;;;;;17.16;36.07;100509.56;4960483;27;98511;-72
2023/06/09 01:16:58;;;;;;;;;;;;;;;17.14;36.08;100500.91;4968744;27;98189;-67
2023/06/09 01:19:32;;;;;;;;;;;;;;;17.10;35.97;100506.16;4949488;27;98617;-71
2023/06/09 01:22:26;;;;;;;;;;;;;;;17.09;36.01;100501.00;4950890;27;99003;-67
2023/06/09 01:25:03;;;;;;;;;;;;;;;17.13;36.00;100508.28;4976967;27;98067;-71
2023/06/09 01:27:29;;;;;;;;;;;;;;;17.18;35.99;100502.69;4968012;27;98000;-67
2023/06/09 01:29:56;;;;;;;;;;;;;;;17.23;36.07;100500.97;4948342;27;97993;-68
2023/06/09 01:32:23;;;;;;;;;;;;;;;17.25;36.11;100502.28;4969938;27;100299;-67
2023/06/09 01:34:50;;;;;;;;;;;;;;;17.26;36.12;100511.25;4958124;27;98121;-71
2023/06/09 01:37:19;;;;;;;;;;;;;;;17.25;35.90;100506.88;4960015;27;99154;-71
2023/06/09 01:39:46;;;;;;;;;;;;;;;17.24;36.08;100508.00;4963798;27;97891;-68
2023/06/09 01:42:13;;;;;;;;;;;;;;;17.22;36.17;100507.53;4943243;27;97983;-71
2023/06/09 01:44:40;;;;;;;;;;;;;;;17.21;36.30;100497.72;4960363;27;97869;-67
2023/06/09 01:47:07;;;;;;;;;;;;;;;17.17;36.33;100501.09;4954781;27;98700;-72
2023/06/09 01:49:48;;;;;;;;;;;;;;;17.16;36.27;100498.66;4961120;27;98553;-71
2023/06/09 01:52:21;;;;;;;;;;;;;;;17.16;36.30;100502.19;4961711;27;98143;-67
2023/06/09 01:55:03;;;;;;;;;;;;;;;17.14;36.20;100500.91;4949719;27;97947;-67
2023/06/09 01:57:44;;;;;;;;;;;;;;;17.12;36.24;100500.41;4962731;27;97897;-71
2023/06/09 02:00:13;;;;;;;;;;;;;;;17.11;36.44;100501.53;4948565;27;98107;-71
2023/06/09 02:02:40;;;;;;;;;;;;;;;17.10;36.20;100500.72;4948353;27;97952;-67
2023/06/09 02:05:07;;;;;;;;;;;;;;;17.08;36.31;100502.13;4938323;27;98058;-67
2023/06/09 02:07:33;;;;;;;;;;;;;;;17.05;36.28;100495.38;4944116;27;97940;-71
2023/06/09 02:09:59;;;;;;;;;;;;;;;17.01;36.40;100501.75;4963282;27;98187;-67
2023/06/09 02:12:33;;;;;;;;;;;;;;;16.99;36.38;100501.28;4965006;27;99841;-71
2023/06/09 02:14:59;;;;;;;;;;;;;;;16.93;36.32;100503.31;4947408;27;98386;-67
2023/06/09 02:17:27;;;;;;;;;;;;;;;16.89;36.35;100505.03;4946447;27;98235;-67
2023/06/09 02:19:54;;;;;;;;;;;;;;;16.86;36.32;100497.50;4953289;27;98791;-67
2023/06/09 02:22:21;;;;;;;;;;;;;;;16.84;36.29;100502.44;4950659;27;98760;-67
2023/06/09 02:24:47;;;;;;;;;;;;;;;16.82;36.33;100500.03;4951555;27;98311;-71
2023/06/09 02:27:14;;;;;;;;;;;;;;;16.80;36.28;100496.81;4947979;27;98356;-71
2023/06/09 02:29:41;;;;;;;;;;;;;;;16.78;36.33;100503.66;4946117;27;98279;-71
2023/06/09 02:32:08;;;;;;;;;;;;;;;16.74;36.48;100498.06;4952012;27;98039;-67
2023/06/09 02:34:34;;;;;;;;;;;;;;;16.71;36.53;100506.00;4981150;27;98371;-71
2023/06/09 02:37:02;;;;;;;;;;;;;;;16.68;36.49;100497.31;4955906;27;98793;-71
2023/06/09 02:39:28;;;;;;;;;;;;;;;16.65;36.36;100506.09;4946819;27;97946;-67
2023/06/09 02:41:55;;;;;;;;;;;;;;;16.63;36.32;100500.16;4949422;27;97982;-66
2023/06/09 02:44:21;;;;;;;;;;;;;;;16.62;36.48;100506.72;4946186;27;98034;-71
2023/06/09 02:46:49;;;;;;;;;;;;;;;16.62;36.46;100504.00;4959906;27;98119;-71
2023/06/09 02:49:16;;;;;;;;;;;;;;;16.60;36.35;100494.53;4960021;27;100070;-67
2023/06/09 02:51:42;;;;;;;;;;;;;;;16.58;36.40;100507.63;4946646;27;99690;-67
2023/06/09 02:54:09;;;;;;;;;;;;;;;16.55;36.46;100506.34;4946836;27;98046;-71
2023/06/09 02:56:36;;;;;;;;;;;;;;;16.53;36.49;100505.81;4947771;27;98197;-71
2023/06/09 02:59:03;;;;;;;;;;;;;;;16.51;36.36;100505.34;4961240;27;99180;-67
2023/06/09 03:01:34;;;;;;;;;;;;;;;16.49;36.49;100521.16;4946010;27;98292;-71
2023/06/09 03:04:02;;;;;;;;;;;;;;;16.46;36.48;100510.88;4941969;27;98114;-71
2023/06/09 03:06:29;;;;;;;;;;;;;;;16.44;36.27;100513.09;4938337;27;99669;-67
2023/06/09 03:08:55;;;;;;;;;;;;;;;16.42;36.36;100515.31;4910618;27;98144;-71
2023/06/09 03:11:22;;;;;;;;;;;;;;;16.41;36.42;100516.44;4947615;27;99730;-67
2023/06/09 03:13:49;;;;;;;;;;;;;;;16.38;36.15;100515.09;4960241;27;98176;-67
2023/06/09 03:16:16;;;;;;;;;;;;;;;16.35;36.53;100510.31;4970599;27;98257;-70
2023/06/09 03:18:46;;;;;;;;;;;;;;;16.34;36.31;100510.59;4946968;27;98362;-67
2023/06/09 03:21:13;;;;;;;;;;;;;;;16.36;36.38;100520.06;4963260;27;98515;-72
2023/06/09 03:23:40;;;;;;;;;;;;;;;16.39;36.37;100516.75;4947387;27;98566;-67
2023/06/09 03:26:07;;;;;;;;;;;;;;;16.43;36.30;100516.94;4961310;27;99100;-72
2023/06/09 03:28:36;;;;;;;;;;;;;;;16.46;36.34;100510.88;4945157;27;98363;-67
2023/06/09 03:31:03;;;;;;;;;;;;;;;16.49;36.42;100514.91;4949710;27;98155;-72
2023/06/09 03:33:29;;;;;;;;;;;;;;;16.51;36.38;100513.50;4965307;27;98115;-72
2023/06/09 03:35:56;;;;;;;;;;;;;;;16.54;36.49;100522.94;4954330;27;98182;-72
2023/06/09 03:38:22;;;;;;;;;;;;;;;16.56;36.37;100515.31;4954550;27;99370;-72
2023/06/09 03:40:49;;;;;;;;;;;;;;;16.62;36.14;100522.22;4950319;27;99700;-71
2023/06/09 03:43:15;;;;;;;;;;;;;;;16.68;36.31;100532.69;4943855;27;98319;-71
2023/06/09 03:45:41;;;;;;;;;;;;;;;16.73;36.21;100528.25;4963274;27;98113;-67
2023/06/09 03:48:08;;;;;;;;;;;;;;;16.75;36.32;100539.69;4948532;27;98029;-67
2023/06/09 03:50:35;;;;;;;;;;;;;;;16.78;36.30;100539.88;4963038;27;98120;-71
2023/06/09 03:53:01;;;;;;;;;;;;;;;16.84;36.23;100552.25;4960127;27;99675;-67
2023/06/09 03:55:31;;;;;;;;;;;;;;;16.88;36.08;100553.22;4979471;27;97880;-71
2023/06/09 03:57:58;;;;;;;;;;;;;;;16.94;36.08;100551.22;4976542;27;98669;-71
2023/06/09 04:00:25;;;;;;;;;;;;;;;16.99;36.06;100542.13;4965741;27;98346;-67
2023/06/09 04:02:52;;;;;;;;;;;;;;;17.05;36.21;100557.22;4949275;27;98408;-71
2023/06/09 04:05:20;;;;;;;;;;;;;;;17.09;36.19;100547.31;4954535;27;98190;-67
2023/06/09 04:07:46;;;;;;;;;;;;;;;17.11;36.16;100545.91;4964271;27;98237;-67
2023/06/09 04:10:13;;;;;;;;;;;;;;;17.15;36.15;100543.38;4952253;27;98132;-67
2023/06/09 04:12:41;;;;;;;;;;;;;;;17.19;36.06;100549.78;4947515;27;97984;-67
2023/06/09 04:15:09;;;;;;;;;;;;;;;17.20;36.25;100547.88;4949690;27;99264;-67
2023/06/09 04:17:38;;;;;;;;;;;;;;;17.23;36.10;100541.81;4950544;27;98086;-67
2023/06/09 04:20:06;;;;;;;;;;;;;;;17.27;36.10;100548.25;4955953;27;99880;-71
2023/06/09 04:22:33;;;;;;;;;;;;;;;17.30;36.04;100550.38;4951425;27;98354;-67
2023/06/09 04:25:01;;;;;;;;;;;;;;;17.32;36.20;100559.00;4950527;27;98148;-67
2023/06/09 04:27:27;;;;;;;;;;;;;;;17.35;36.30;100551.03;4951858;27;98270;-67
2023/06/09 04:29:54;;;;;;;;;;;;;;;17.38;36.41;100555.88;4938572;27;98284;-67
2023/06/09 04:32:21;;;;;;;;;;;;;;;17.42;36.24;100551.41;4961021;27;100725;-71
2023/06/09 04:34:47;;;;;;;;;;;;;;;17.47;36.27;100550.47;4950259;27;98052;-67
2023/06/09 04:37:14;;;;;;;;;;;;;;;17.51;36.19;100550.66;4945230;27;97797;-67
2023/06/09 04:39:45;;;;;;;;;;;;;;;17.56;36.14;100540.41;4945085;27;98088;-67
2023/06/09 04:42:11;;;;;;;;;;;;;;;17.65;36.18;100541.28;4944858;27;98272;-67
2023/06/09 04:44:39;;;;;;;;;;;;;;;17.72;35.99;100537.28;4961149;27;98214;-67
2023/06/09 04:47:05;;;;;;;;;;;;;;;17.77;36.05;100540.72;4947287;27;98283;-71
2023/06/09 04:49:31;;;;;;;;;;;;;;;17.85;36.08;100545.41;4948145;27;98010;-67
2023/06/09 04:52:02;;;;;;;;;;;;;;;17.92;36.18;100542.25;4943092;27;97991;-67
2023/06/09 04:54:29;;;;;;;;;;;;;;;18.02;35.98;100541.94;4942665;27;98090;-71
2023/06/09 04:56:57;;;;;;;;;;;;;;;18.11;35.97;100541.97;4940289;27;98125;-71
2023/06/09 04:59:31;;;;;;;;;;;;;;;18.22;35.84;100550.69;4976736;27;98063;-67
2023/06/09 05:01:58;;;;;;;;;;;;;;;18.35;35.82;100542.38;4947539;27;98446;-71
2023/06/09 05:04:25;;;;;;;;;;;;;;;18.50;35.75;100545.78;4942800;27;97980;-71
2023/06/09 05:06:52;;;;;;;;;;;;;;;18.65;35.80;100542.59;4956409;27;98538;-71
2023/06/09 05:09:19;;;;;;;;;;;;;;;18.85;35.51;100544.72;4944154;27;98269;-71
2023/06/09 05:11:47;;;;;;;;;;;;;;;19.06;35.52;100546.78;4942816;27;98971;-71
2023/06/09 05:14:14;;;;;;;;;;;;;;;19.24;35.39;100547.59;4958416;27;98067;-71
2023/06/09 05:16:40;;;;;;;;;;;;;;;19.41;35.38;100549.50;4956748;27;98198;-67
2023/06/09 05:19:07;;;;;;;;;;;;;;;19.51;35.30;100558.16;4973114;27;98159;-72
2023/06/09 05:21:34;;;;;;;;;;;;;;;19.65;35.03;100547.06;4957433;27;98258;-67
2023/06/09 05:24:00;;;;;;;;;;;;;;;19.79;35.24;100550.38;4974522;27;97989;-73
2023/06/09 05:26:27;;;;;;;;;;;;;;;19.97;35.16;100553.06;4953959;27;101703;-71
2023/06/09 05:28:54;;;;;;;;;;;;;;;20.14;35.12;100555.72;4950436;27;98411;-71
2023/06/09 05:31:20;;;;;;;;;;;;;;;20.33;35.08;100561.59;4947359;27;98093;-67
2023/06/09 05:33:47;;;;;;;;;;;;;;;20.51;34.89;100569.72;4948887;27;98214;-68
2023/06/09 05:36:13;;;;;;;;;;;;;;;20.70;35.02;100564.59;4943954;27;99170;-67
2023/06/09 05:38:40;;;;;;;;;;;;;;;20.90;34.78;100562.19;4947815;27;97782;-72
2023/06/09 05:41:06;;;;;;;;;;;;;;;21.11;34.75;100563.00;4955751;27;99372;-71
2023/06/09 05:43:32;;;;;;;;;;;;;;;21.38;34.76;100567.13;4964344;27;98103;-71
2023/06/09 05:45:59;;;;;;;;;;;;;;;21.68;34.70;100559.56;4946644;27;98460;-71
2023/06/09 05:48:26;;;;;;;;;;;;;;;21.76;34.79;100568.81;4975217;27;98138;-72
2023/06/09 05:50:52;;;;;;;;;;;;;;;22.15;34.61;100575.66;4945334;27;99537;-72
2023/06/09 05:53:19;;;;;;;;;;;;;;;22.57;34.20;100574.59;4943571;27;98299;-72
2023/06/09 05:55:45;;;;;;;;;;;;;;;23.12;34.14;100570.38;4944685;27;98369;-67
2023/06/09 05:58:13;;;;;;;;;;;;;;;23.47;34.06;100574.13;4943486;27;100187;-67
2023/06/09 06:00:42;;;;;;;;;;;;;;;23.94;34.02;100572.59;4947904;27;98247;-71
2023/06/09 06:03:10;;;;;;;;;;;;;;;24.47;33.86;100578.59;4951173;27;98845;-69
2023/06/09 06:05:37;;;;;;;;;;;;;;;24.99;33.72;100580.13;4962523;27;98229;-68
2023/06/09 06:08:05;;;;;;;;;;;;;;;25.66;33.63;100569.66;4944685;27;97952;-72
2023/06/09 06:10:31;;;;;;;;;;;;;;;26.22;33.37;100570.22;4949392;27;98715;-72
2023/06/09 06:13:01;;;;;;;;;;;;;;;26.88;32.96;100575.16;4941495;28;98122;-71
2023/06/09 06:15:27;;;;;;;;;;;;;;;26.30;33.52;100574.69;4946291;27;98465;-72
2023/06/09 06:17:53;;;;;;;;;;;;;;;25.92;33.90;100590.25;4943608;28;98537;-68
2023/06/09 06:20:20;;;;;;;;;;;;;;;26.62;33.31;100577.94;4963268;28;99264;-68
2023/06/09 06:22:47;;;;;;;;;;;;;;;26.49;33.69;100577.38;4957950;28;98283;-71
2023/06/09 06:25:13;;;;;;;;;;;;;;;26.14;34.19;100574.84;4960840;28;98522;-68
2023/06/09 06:27:43;;;;;;;;;;;;;;;26.58;33.59;100577.91;4956359;27;97995;-68
2023/06/09 06:30:09;;;;;;;;;;;;;;;26.23;34.10;100575.38;4944174;28;98279;-71
2023/06/09 06:32:39;;;;;;;;;;;;;;;25.85;34.48;100577.09;4942220;28;98122;-68
2023/06/09 06:35:09;;;;;;;;;;;;;;;26.00;34.29;100585.63;4943625;28;98106;-71
2023/06/09 06:37:36;;;;;;;;;;;;;;;25.90;34.15;100576.03;4939718;28;98029;-68
2023/06/09 06:40:03;;;;;;;;;;;;;;;25.61;34.45;100585.72;4963397;28;100039;-71
2023/06/09 06:42:30;;;;;;;;;;;;;;;25.93;34.11;100586.31;4941578;28;98058;-72
2023/06/09 06:44:57;;;;;;;;;;;;;;;25.80;34.00;100579.38;4943427;28;98172;-71
2023/06/09 06:47:24;;;;;;;;;;;;;;;25.66;34.10;100583.47;4946360;28;98381;-71
2023/06/09 06:49:50;;;;;;;;;;;;;;;25.57;34.45;100593.94;4940795;28;98205;-68
2023/06/09 06:52:16;;;;;;;;;;;;;;;25.55;34.30;100588.00;4971769;28;99458;-71
2023/06/09 06:54:43;;;;;;;;;;;;;;;25.88;33.85;100584.66;4956232;28;101382;-68
2023/06/09 06:57:09;;;;;;;;;;;;;;;25.95;33.77;100586.75;4956544;27;98360;-71
2023/06/09 06:59:35;;;;;;;;;;;;;;;26.41;33.45;100581.19;4945846;28;98152;-68
2023/06/09 07:02:02;;;;;;;;;;;;;;;25.91;33.87;100583.94;4955831;28;98143;-68
2023/06/09 07:04:29;;;;;;;;;;;;;;;25.60;34.20;100589.66;4942691;28;98324;-68
2023/06/09 07:06:56;;;;;;;;;;;;;;;25.39;34.41;100588.09;4959139;28;99171;-71
2023/06/09 07:09:24;;;;;;;;;;;;;;;25.25;34.45;100578.72;4943405;27;98841;-68
2023/06/09 07:11:50;;;;;;;;;;;;;;;26.05;33.40;100588.88;4942738;27;97957;-71
2023/06/09 07:14:16;;;;;;;;;;;;;;;26.83;33.10;100581.00;4958702;27;98471;-71
2023/06/09 07:16:43;;;;;;;;;;;;;;;26.61;33.33;100587.41;4949569;27;99553;-68
2023/06/09 07:19:10;;;;;;;;;;;;;;;26.20;33.65;100587.16;4963490;27;97855;-68
2023/06/09 07:21:37;;;;;;;;;;;;;;;25.85;33.99;100592.88;4952180;27;98305;-71
2023/06/09 07:24:04;;;;;;;;;;;;;;;25.56;34.25;100586.03;4949877;27;98815;-68
2023/06/09 07:26:31;;;;;;;;;;;;;;;25.35;34.27;100583.63;4948902;27;97979;-68
2023/06/09 07:28:58;;;;;;;;;;;;;;;25.25;34.31;100587.78;4949697;27;97993;-70
2023/06/09 07:31:24;;;;;;;;;;;;;;;25.29;34.20;100580.38;4962365;27;98316;-70
2023/06/09 07:33:50;;;;;;;;;;;;;;;25.93;33.67;100580.78;4952586;27;97969;-67
2023/06/09 07:36:16;;;;;;;;;;;;;;;26.77;33.06;100581.72;4957845;27;98517;-70
2023/06/09 07:38:44;;;;;;;;;;;;;;;27.76;32.33;100579.34;4960155;27;98155;-68
2023/06/09 07:41:10;;;;;;;;;;;;;;;28.65;32.00;100579.25;4952992;27;98135;-70
2023/06/09 07:43:37;;;;;;;;;;;;;;;30.05;30.61;100574.91;4955908;27;98256;-68
2023/06/09 07:46:03;;;;;;;;;;;;;;;30.84;30.62;100578.38;4950480;27;98213;-68
2023/06/09 07:48:29;;;;;;;;;;;;;;;32.53;29.89;100575.28;4951364;27;98748;-68
2023/06/09 07:50:56;;;;;;;;;;;;;;;33.86;28.90;100587.09;4952548;27;98034;-71
2023/06/09 07:53:22;;;;;;;;;;;;;;;34.93;28.52;100587.97;4948572;27;97964;-70
2023/06/09 07:55:50;;;;;;;;;;;;;;;35.75;28.47;100584.59;4951815;27;98299;-69
2023/06/09 07:58:17;;;;;;;;;;;;;;;36.74;28.35;100580.44;4964886;27;97976;-70
2023/06/09 08:00:44;;;;;;;;;;;;;;;37.51;28.10;100584.22;4946642;27;97918;-69
2023/06/09 08:03:10;;;;;;;;;;;;;;;38.02;28.15;100576.50;4947017;27;98163;-69
2023/06/09 08:05:37;;;;;;;;;;;;;;;37.63;28.49;100574.19;4946391;27;98454;-70
2023/06/09 08:08:04;;;;;;;;;;;;;;;38.34;28.33;100571.81;4949457;27;98116;-70
2023/06/09 08:10:31;;;;;;;;;;;;;;;39.39;27.85;100573.13;4944395;27;97982;-71
2023/06/09 08:12:57;;;;;;;;;;;;;;;40.47;27.28;100572.25;4964241;27;98317;-69
2023/06/09 08:15:24;;;;;;;;;;;;;;;41.21;27.25;100570.09;4949890;27;98016;-69
2023/06/09 08:17:50;;;;;;;;;;;;;;;41.97;26.76;100572.84;4958232;27;98231;-69
2023/06/09 08:20:16;;;;;;;;;;;;;;;42.58;27.03;100570.47;4947183;27;99638;-71
2023/06/09 08:22:43;;;;;;;;;;;;;;;43.11;26.97;100561.13;4950837;27;98291;-70
2023/06/09 08:25:12;;;;;;;;;;;;;;;43.65;26.52;100567.38;4941027;27;98174;-71
2023/06/09 08:27:38;;;;;;;;;;;;;;;44.23;26.54;100561.91;4948951;27;97953;-71
2023/06/09 08:30:06;;;;;;;;;;;;;;;44.67;26.43;100555.19;4944475;27;98128;-69
2023/06/09 08:32:33;;;;;;;;;;;;;;;45.13;26.52;100557.91;4949351;27;98451;-70
2023/06/09 08:35:06;;;;;;;;;;;;;;;45.21;26.32;100553.31;4963941;27;98773;-69
2023/06/09 08:37:33;;;;;;;;;;;;;;;45.34;26.58;100546.41;4953509;27;99760;-71
2023/06/09 08:40:02;;;;;;;;;;;;;;;45.62;26.64;100546.59;4963271;27;98085;-69
2023/06/09 08:42:29;;;;;;;;;;;;;;;45.97;26.22;100544.16;4950863;27;98120;-69
2023/06/09 08:45:01;;;;;;;;;;;;;;;46.47;26.43;100543.53;4949554;27;97957;-71
2023/06/09 08:47:28;;;;;;;;;;;;;;;46.67;25.89;100541.78;4949002;27;99563;-71
2023/06/09 08:49:57;;;;;;;;;;;;;;;46.85;26.29;100540.47;4949311;27;98847;-72
2023/06/09 08:52:27;;;;;;;;;;;;;;;47.16;26.07;100534.47;4963502;27;98022;-71
2023/06/09 08:54:55;;;;;;;;;;;;;;;47.31;26.03;100539.91;4946084;27;97961;-71
2023/06/09 08:57:21;;;;;;;;;;;;;;;47.69;25.69;100532.56;4952769;27;98093;-69
2023/06/09 08:59:48;;;;;;;;;;;;;;;47.97;25.89;100528.03;4948763;27;98027;-71
2023/06/09 09:02:15;;;;;;;;;;;;;;;48.13;25.90;100530.81;4964446;27;98257;-72
2023/06/09 09:04:41;;;;;;;;;;;;;;;48.20;25.82;100529.47;4947702;27;98496;-69
2023/06/09 09:07:11;;;;;;;;;;;;;;;48.27;25.94;100523.22;4949249;27;98271;-71
2023/06/09 09:09:38;;;;;;;;;;;;;;;48.37;25.74;100517.94;4950104;27;98436;-69
2023/06/09 09:12:06;;;;;;;;;;;;;;;48.33;25.92;100523.16;4950571;27;97959;-69
2023/06/09 09:14:32;;;;;;;;;;;;;;;48.59;25.72;100525.59;4950729;27;98207;-71
2023/06/09 09:16:58;;;;;;;;;;;;;;;48.30;25.81;100518.50;4948953;27;97882;-71
2023/06/09 09:19:30;;;;;;;;;;;;;;;47.34;26.32;100510.38;4949063;27;97896;-71
2023/06/09 09:21:56;;;;;;;;;;;;;;;46.47;27.20;100505.75;4961618;27;99924;-69
2023/06/09 09:24:30;;;;;;;;;;;;;;;45.97;27.41;100501.47;4977455;27;98490;-69
2023/06/09 09:26:57;;;;;;;;;;;;;;;45.73;27.55;100498.28;4948701;27;98488;-69
2023/06/09 09:29:29;;;;;;;;;;;;;;;45.66;27.71;100493.06;4946582;27;100536;-70
2023/06/09 09:32:02;;;;;;;;;;;;;;;46.01;27.59;100499.16;4962537;27;98880;-66
2023/06/09 09:34:31;;;;;;;;;;;;;;;46.64;26.82;100509.38;4952773;27;98086;-69
2023/06/09 09:36:58;;;;;;;;;;;;;;;47.29;26.38;100514.00;4954927;27;98237;-66
2023/06/09 09:39:26;;;;;;;;;;;;;;;47.80;25.93;100511.00;4952019;27;99625;-70
2023/06/09 09:42:08;;;;;;;;;;;;;;;48.45;25.67;100501.78;4959689;27;98321;-69
2023/06/09 09:44:50;;;;;;;;;;;;;;;48.79;25.67;100505.16;4951677;27;98442;-70
2023/06/09 09:47:18;;;;;;;;;;;;;;;49.15;25.29;100499.38;4959711;27;99998;-68
2023/06/09 09:49:55;;;;;;;;;;;;;;;49.45;25.34;100502.13;4963984;27;98266;-67
2023/06/09 09:52:32;;;;;;;;;;;;;;;49.56;25.24;100499.16;4949794;27;98317;-69
2023/06/09 09:55:08;;;;;;;;;;;;;;;49.72;25.16;100488.00;4953676;27;98293;-69
2023/06/09 09:57:35;;;;;;;;;;;;;;;50.09;25.33;100484.41;4964175;27;98129;-69
2023/06/09 10:00:11;;;;;;;;;;;;;;;50.11;25.22;100478.88;4960671;27;98036;-69
2023/06/09 10:02:37;;;;;;;;;;;;;;;50.16;25.16;100480.91;4952506;27;98233;-69
2023/06/09 10:05:05;;;;;;;;;;;;;;;50.15;24.99;100472.84;4961374;27;98416;-72
2023/06/09 10:07:33;;;;;;;;;;;;;;;49.86;25.32;100470.41;4942972;27;98010;-68
2023/06/09 10:10:00;;;;;;;;;;;;;;;49.73;25.36;100467.44;4944811;27;98070;-72
2023/06/09 10:12:26;;;;;;;;;;;;;;;49.62;25.33;100456.94;4951108;27;98109;-68
2023/06/09 10:14:52;;;;;;;;;;;;;;;49.54;25.66;100456.00;4961599;27;98437;-69
2023/06/09 10:17:22;;;;;;;;;;;;;;;49.42;25.71;100457.44;4948382;27;99237;-72
2023/06/09 10:19:51;;;;;;;;;;;;;;;49.27;25.74;100443.56;4949386;27;106796;-68
2023/06/09 10:22:19;;;;;;;;;;;;;;;49.08;25.95;100454.94;4960752;27;98283;-72
2023/06/09 10:24:46;;;;;;;;;;;;;;;48.84;26.04;100438.56;4942970;27;99970;-72
2023/06/09 10:27:15;;;;;;;;;;;;;;;48.42;26.34;100431.44;4947001;27;98225;-68
2023/06/09 10:29:41;;;;;;;;;;;;;;;47.53;27.09;100442.09;4961286;27;98025;-69
2023/06/09 10:32:11;;;;;;;;;;;;;;;48.13;26.15;100444.38;4943155;28;97964;-68
2023/06/09 10:34:38;;;;;;;;;;;;;;;48.27;25.97;100436.75;4961226;27;99132;-71
2023/06/09 10:37:04;;;;;;;;;;;;;;;48.36;26.10;100436.41;4943373;27;97849;-72
2023/06/09 10:39:40;;;;;;;;;;;;;;;48.55;26.04;100425.09;4947258;27;98355;-72
2023/06/09 10:42:19;;;;;;;;;;;;;;;48.66;25.97;100422.91;4955395;28;97938;-70
2023/06/09 10:45:10;;;;;;;;;;;;;;;48.86;25.85;100426.63;4944018;28;98335;-72
2023/06/09 10:47:49;;;;;;;;;;;;;;;48.97;25.82;100425.72;4953040;27;97993;-72
2023/06/09 10:50:26;;;;;;;;;;;;;;;49.04;25.61;100413.66;4950339;28;98905;-69
2023/06/09 10:52:55;;;;;;;;;;;;;;;49.09;25.65;100407.91;4947003;28;98140;-72
2023/06/09 10:55:24;;;;;;;;;;;;;;;48.98;25.80;100416.59;4941369;27;98282;-72
2023/06/09 10:57:54;;;;;;;;;;;;;;;48.79;25.65;100410.84;4942256;28;99737;-69
2023/06/09 11:00:21;;;;;;;;;;;;;;;48.53;25.81;100408.47;4964105;27;98117;-68
2023/06/09 11:02:50;;;;;;;;;;;;;;;48.32;26.06;100401.63;4963407;27;98000;-72
2023/06/09 11:05:17;;;;;;;;;;;;;;;46.64;27.25;100397.50;4978683;27;98363;-71
2023/06/09 11:07:48;;;;;;;;;;;;;;;47.40;26.55;100404.81;4949166;27;98262;-72
2023/06/09 11:10:25;;;;;;;;;;;;;;;46.54;27.23;100410.44;4941578;28;98161;-68
2023/06/09 11:12:53;;;;;;;;;;;;;;;43.56;29.23;100394.50;4954731;27;98375;-72
2023/06/09 11:15:20;;;;;;;;;;;;;;;44.68;27.56;100386.28;4973368;27;98081;-72
2023/06/09 11:17:52;;;;;;;;;;;;;;;45.53;27.17;100391.91;4977758;27;98696;-68
2023/06/09 11:20:22;;;;;;;;;;;;;;;45.52;26.86;100407.44;4950850;27;97959;-68
2023/06/09 11:22:48;;;;;;;;;;;;;;;45.82;26.37;100397.69;4946858;27;97969;-68
2023/06/09 11:25:17;;;;;;;;;;;;;;;44.70;27.19;100381.66;4977454;27;98118;-73
2023/06/09 11:27:44;;;;;;;;;;;;;;;44.14;27.74;100383.22;4981774;27;100630;-73
2023/06/09 11:30:15;;;;;;;;;;;;;;;42.84;28.74;100372.38;4945671;27;98694;-68
2023/06/09 11:32:52;;;;;;;;;;;;;;;41.29;29.58;100373.47;4946278;27;98114;-68
2023/06/09 11:35:39;;;;;;;;;;;;;;;40.19;30.11;100376.78;4937137;28;98157;-72
2023/06/09 11:38:07;;;;;;;;;;;;;;;39.15;30.64;100378.47;4976139;27;98988;-74
2023/06/09 11:40:44;;;;;;;;;;;;;;;38.45;30.81;100369.59;4963640;27;98447;-72
2023/06/09 11:43:11;;;;;;;;;;;;;;;38.82;30.08;100372.56;4963148;27;98936;-73
2023/06/09 11:45:38;;;;;;;;;;;;;;;39.68;28.99;100371.81;4942712;27;98709;-68
2023/06/09 11:48:05;;;;;;;;;;;;;;;40.31;28.74;100370.16;4954059;28;99397;-68
2023/06/09 11:50:44;;;;;;;;;;;;;;;39.30;29.66;100363.78;4958718;27;98477;-73
2023/06/09 11:53:15;;;;;;;;;;;;;;;38.66;30.26;100365.13;4961655;28;98123;-68
2023/06/09 11:55:42;;;;;;;;;;;;;;;38.13;30.12;100370.03;4940347;27;98469;-72
2023/06/09 11:58:10;;;;;;;;;;;;;;;39.07;29.56;100373.56;4961185;28;98372;-68
2023/06/09 12:00:41;;;;;;;;;;;;;;;39.56;29.04;100365.06;4944818;27;98264;-72
2023/06/09 12:03:09;;;;;;;;;;;;;;;39.94;28.76;100375.09;4955933;27;97970;-73
2023/06/09 12:05:35;;;;;;;;;;;;;;;40.20;28.50;100369.88;4950043;27;97844;-69
2023/06/09 12:08:02;;;;;;;;;;;;;;;40.47;28.28;100366.16;4964944;27;98320;-73
2023/06/09 12:10:28;;;;;;;;;;;;;;;40.54;28.05;100370.69;4954700;27;98231;-71
2023/06/09 12:12:57;;;;;;;;;;;;;;;39.78;28.78;100375.41;4946631;28;98055;-73
2023/06/09 12:15:24;;;;;;;;;;;;;;;39.67;28.76;100362.56;4924822;27;98139;-68
2023/06/09 12:17:54;;;;;;;;;;;;;;;40.28;28.21;100361.84;4935624;28;99049;-69
2023/06/09 12:20:21;;;;;;;;;;;;;;;39.45;28.73;100356.28;4927586;28;99009;-68
2023/06/09 12:22:48;;;;;;;;;;;;;;;38.52;29.39;100360.88;4954536;27;102503;-69
2023/06/09 12:25:21;;;;;;;;;;;;;;;37.72;30.24;100355.03;4931152;27;99021;-69
2023/06/09 12:27:52;;;;;;;;;;;;;;;36.96;30.35;100350.41;4921840;27;98178;-69
2023/06/09 12:30:35;;;;;;;;;;;;;;;36.31;30.68;100360.00;4942758;27;98524;-68
2023/06/09 12:33:12;;;;;;;;;;;;;;;36.57;30.05;100356.00;4939578;27;98134;-69
2023/06/09 12:35:43;;;;;;;;;;;;;;;37.40;29.17;100356.13;4927852;27;97773;-68
2023/06/09 12:38:10;;;;;;;;;;;;;;;37.89;28.59;100352.81;4925977;27;98200;-69
2023/06/09 12:40:50;;;;;;;;;;;;;;;38.25;28.99;100349.47;4946806;27;98185;-72
2023/06/09 12:43:20;;;;;;;;;;;;;;;38.71;28.09;100349.66;4934435;27;98537;-69